sensor_id;sensor_type;location;lat;lon;timestamp;pressure;altitude;pressure_sealevel;temperature;humidity
55347;BME280;41218;55.700;38.270;2024-01-15T00:04:26;97875.28;;;-10.14;70.19
55347;BME280;41218;55.700;38.270;2024-01-15T00:09:27;97884.00;;;-10.03;69.99
55347;BME280;41218;55.700;38.270;2024-01-15T00:14:28;97882.13;;;-10.02;70.57
55347;BME280;41218;55.700;38.270;2024-01-15T00:19:29;97863.25;;;-10.11;69.99
55347;BME280;41218;55.700;38.270;2024-01-15T00:24:32;97877.81;;;-9.98;70.19
55347;BME280;41218;55.700;38.270;2024-01-15T00:29:33;97853.88;;;-10.09;70.01
55347;BME280;41218;55.700;38.270;2024-01-15T00:34:33;97839.41;;;-10.08;70.38
55347;BME280;41218;55.700;38.270;2024-01-15T00:39:34;97846.09;;;-10.05;70.80
55347;BME280;41218;55.700;38.270;2024-01-15T00:44:35;97827.16;;;-10.09;70.27
55347;BME280;41218;55.700;38.270;2024-01-15T00:49:36;97832.91;;;-9.96;70.69
55347;BME280;41218;55.700;38.270;2024-01-15T00:54:37;97841.66;;;-9.91;70.49
55347;BME280;41218;55.700;38.270;2024-01-15T00:59:38;97838.66;;;-9.84;70.78
55347;BME280;41218;55.700;38.270;2024-01-15T01:04:40;97814.97;;;-9.96;70.92
55347;BME280;41218;55.700;38.270;2024-01-15T01:09:41;97819.78;;;-9.93;70.57
55347;BME280;41218;55.700;38.270;2024-01-15T01:14:41;97832.41;;;-9.74;70.19
55347;BME280;41218;55.700;38.270;2024-01-15T01:19:42;97824.94;;;-9.77;70.24
55347;BME280;41218;55.700;38.270;2024-01-15T01:24:42;97824.38;;;-9.74;70.30
55347;BME280;41218;55.700;38.270;2024-01-15T01:29:43;97821.72;;;-9.74;70.11
55347;BME280;41218;55.700;38.270;2024-01-15T01:34:44;97805.72;;;-9.79;70.35
55347;BME280;41218;55.700;38.270;2024-01-15T01:39:44;97804.25;;;-9.67;70.39
55347;BME280;41218;55.700;38.270;2024-01-15T01:44:48;97809.53;;;-9.61;70.67
55347;BME280;41218;55.700;38.270;2024-01-15T01:49:49;97795.91;;;-9.65;70.63
55347;BME280;41218;55.700;38.270;2024-01-15T01:54:50;97789.75;;;-9.60;70.80
55347;BME280;41218;55.700;38.270;2024-01-15T01:59:53;97787.34;;;-9.62;70.91
55347;BME280;41218;55.700;38.270;2024-01-15T02:04:55;97776.94;;;-9.63;70.47
55347;BME280;41218;55.700;38.270;2024-01-15T02:09:57;97774.72;;;-9.56;70.35
55347;BME280;41218;55.700;38.270;2024-01-15T02:14:57;97761.09;;;-9.60;70.41
55347;BME280;41218;55.700;38.270;2024-01-15T02:19:58;97760.25;;;-9.55;71.05
55347;BME280;41218;55.700;38.270;2024-01-15T02:25:00;97763.13;;;-9.52;70.79
55347;BME280;41218;55.700;38.270;2024-01-15T02:30:01;97772.13;;;-9.42;71.50
55347;BME280;41218;55.700;38.270;2024-01-15T02:35:02;97770.97;;;-9.36;71.40
55347;BME280;41218;55.700;38.270;2024-01-15T02:40:03;97748.34;;;-9.44;70.86
55347;BME280;41218;55.700;38.270;2024-01-15T02:45:04;97760.69;;;-9.29;70.94
55347;BME280;41218;55.700;38.270;2024-01-15T02:50:05;97770.16;;;-9.37;70.73
55347;BME280;41218;55.700;38.270;2024-01-15T02:55:06;97757.38;;;-9.40;70.59
55347;BME280;41218;55.700;38.270;2024-01-15T03:00:07;97747.56;;;-9.44;70.68
55347;BME280;41218;55.700;38.270;2024-01-15T03:05:09;97732.06;;;-9.48;71.25
55347;BME280;41218;55.700;38.270;2024-01-15T03:10:11;97757.75;;;-9.28;70.97
55347;BME280;41218;55.700;38.270;2024-01-15T03:15:11;97761.88;;;-9.16;71.09
55347;BME280;41218;55.700;38.270;2024-01-15T03:20:12;97743.50;;;-9.23;71.19
55347;BME280;41218;55.700;38.270;2024-01-15T03:25:12;97742.84;;;-9.15;71.40
55347;BME280;41218;55.700;38.270;2024-01-15T03:30:13;97755.28;;;-9.05;71.28
55347;BME280;41218;55.700;38.270;2024-01-15T03:35:14;97737.69;;;-9.11;71.74
55347;BME280;41218;55.700;38.270;2024-01-15T03:40:14;97706.31;;;-9.24;71.56
55347;BME280;41218;55.700;38.270;2024-01-15T03:45:15;97748.38;;;-8.92;71.64
55347;BME280;41218;55.700;38.270;2024-01-15T03:50:16;97727.28;;;-8.94;71.50
55347;BME280;41218;55.700;38.270;2024-01-15T03:55:16;97735.16;;;-8.83;72.25
55347;BME280;41218;55.700;38.270;2024-01-15T04:00:17;97709.03;;;-8.92;72.02
55347;BME280;41218;55.700;38.270;2024-01-15T04:05:17;97736.06;;;-8.74;72.74
55347;BME280;41218;55.700;38.270;2024-01-15T04:10:23;97705.19;;;-8.85;72.17
55347;BME280;41218;55.700;38.270;2024-01-15T04:15:24;97728.06;;;-8.60;72.40
55347;BME280;41218;55.700;38.270;2024-01-15T04:20:24;97724.81;;;-8.57;71.60
55347;BME280;41218;55.700;38.270;2024-01-15T04:25:25;97723.81;;;-8.48;71.71
55347;BME280;41218;55.700;38.270;2024-01-15T04:30:25;97706.25;;;-8.54;72.16
55347;BME280;41218;55.700;38.270;2024-01-15T04:35:26;97717.75;;;-8.39;71.92
55347;BME280;41218;55.700;38.270;2024-01-15T04:40:26;97709.22;;;-8.41;72.03
55347;BME280;41218;55.700;38.270;2024-01-15T04:45:27;97714.59;;;-8.28;72.09
55347;BME280;41218;55.700;38.270;2024-01-15T04:50:29;97671.13;;;-8.52;71.50
55347;BME280;41218;55.700;38.270;2024-01-15T04:55:29;97709.03;;;-8.17;72.27
55347;BME280;41218;55.700;38.270;2024-01-15T05:00:30;97717.88;;;-8.17;72.43
55347;BME280;41218;55.700;38.270;2024-01-15T05:05:30;97707.06;;;-8.12;71.81
55347;BME280;41218;55.700;38.270;2024-01-15T05:10:31;97691.78;;;-8.25;71.87
55347;BME280;41218;55.700;38.270;2024-01-15T05:15:32;97716.00;;;-8.02;72.03
55347;BME280;41218;55.700;38.270;2024-01-15T05:20:32;97709.25;;;-8.00;71.97
55347;BME280;41218;55.700;38.270;2024-01-15T05:25:33;97708.84;;;-7.93;71.74
55347;BME280;41218;55.700;38.270;2024-01-15T05:30:35;97689.97;;;-8.02;71.91
55347;BME280;41218;55.700;38.270;2024-01-15T05:35:35;97708.75;;;-7.88;71.90
55347;BME280;41218;55.700;38.270;2024-01-15T05:40:36;97705.06;;;-7.78;72.39
55347;BME280;41218;55.700;38.270;2024-01-15T05:45:38;97703.38;;;-7.74;72.06
55347;BME280;41218;55.700;38.270;2024-01-15T05:50:41;97673.88;;;-7.88;72.07
55347;BME280;41218;55.700;38.270;2024-01-15T05:55:42;97701.69;;;-7.70;71.88
55347;BME280;41218;55.700;38.270;2024-01-15T06:00:42;97710.19;;;-7.54;72.95
55347;BME280;41218;55.700;38.270;2024-01-15T06:05:43;97695.97;;;-7.55;72.68
55347;BME280;41218;55.700;38.270;2024-01-15T06:10:44;97700.81;;;-7.43;72.88
55347;BME280;41218;55.700;38.270;2024-01-15T06:15:44;97696.53;;;-7.44;73.71
55347;BME280;41218;55.700;38.270;2024-01-15T06:20:45;97710.53;;;-7.33;72.52
55347;BME280;41218;55.700;38.270;2024-01-15T06:25:45;97690.78;;;-7.37;72.65
55347;BME280;41218;55.700;38.270;2024-01-15T06:30:46;97710.03;;;-7.21;72.66
55347;BME280;41218;55.700;38.270;2024-01-15T06:35:46;97673.25;;;-7.35;73.22
55347;BME280;41218;55.700;38.270;2024-01-15T06:40:47;97688.34;;;-7.25;73.50
55347;BME280;41218;55.700;38.270;2024-01-15T06:45:48;97709.53;;;-7.01;73.58
55347;BME280;41218;55.700;38.270;2024-01-15T06:50:49;97692.13;;;-7.03;73.04
55347;BME280;41218;55.700;38.270;2024-01-15T06:55:50;97688.53;;;-6.99;72.93
55347;BME280;41218;55.700;38.270;2024-01-15T07:00:51;97709.53;;;-6.78;73.13
55347;BME280;41218;55.700;38.270;2024-01-15T07:05:52;97712.09;;;-6.73;73.13
55347;BME280;41218;55.700;38.270;2024-01-15T07:10:54;97698.00;;;-6.79;73.53
55347;BME280;41218;55.700;38.270;2024-01-15T07:15:54;97694.44;;;-6.66;73.20
55347;BME280;41218;55.700;38.270;2024-01-15T07:20:55;97693.09;;;-6.54;73.84
55347;BME280;41218;55.700;38.270;2024-01-15T07:25:57;97704.41;;;-6.35;73.58
55347;BME280;41218;55.700;38.270;2024-01-15T07:30:58;97693.78;;;-6.40;73.40
55347;BME280;41218;55.700;38.270;2024-01-15T07:35:58;97691.63;;;-6.29;72.91
55347;BME280;41218;55.700;38.270;2024-01-15T07:40:59;97707.84;;;-6.12;73.62
55347;BME280;41218;55.700;38.270;2024-01-15T07:46:00;97701.53;;;-6.07;73.65
55347;BME280;41218;55.700;38.270;2024-01-15T07:51:00;97686.16;;;-6.07;73.40
55347;BME280;41218;55.700;38.270;2024-01-15T07:56:01;97689.69;;;-5.97;73.32
55347;BME280;41218;55.700;38.270;2024-01-15T08:01:03;97690.47;;;-5.88;73.68
55347;BME280;41218;55.700;38.270;2024-01-15T08:06:05;97706.97;;;-5.81;72.83
55347;BME280;41218;55.700;38.270;2024-01-15T08:11:06;97697.34;;;-5.73;73.33
55347;BME280;41218;55.700;38.270;2024-01-15T08:16:06;97686.56;;;-5.73;73.52
55347;BME280;41218;55.700;38.270;2024-01-15T08:21:07;97703.22;;;-5.63;73.65
55347;BME280;41218;55.700;38.270;2024-01-15T08:26:10;97694.53;;;-5.59;73.11
55347;BME280;41218;55.700;38.270;2024-01-15T08:31:11;97696.25;;;-5.46;73.65
55347;BME280;41218;55.700;38.270;2024-01-15T08:36:11;97684.53;;;-5.41;73.56
55347;BME280;41218;55.700;38.270;2024-01-15T08:41:12;97696.28;;;-5.20;73.38
55347;BME280;41218;55.700;38.270;2024-01-15T08:46:13;97690.75;;;-5.24;73.97
55347;BME280;41218;55.700;38.270;2024-01-15T08:51:14;97691.22;;;-5.21;73.19
55347;BME280;41218;55.700;38.270;2024-01-15T08:56:14;97694.88;;;-5.09;73.25
55347;BME280;41218;55.700;38.270;2024-01-15T09:01:15;97695.50;;;-5.03;74.24
55347;BME280;41218;55.700;38.270;2024-01-15T09:06:19;97696.91;;;-4.97;73.06
55347;BME280;41218;55.700;38.270;2024-01-15T09:11:21;97687.41;;;-4.94;73.34
55347;BME280;41218;55.700;38.270;2024-01-15T09:16:22;97702.16;;;-4.74;73.29
55347;BME280;41218;55.700;38.270;2024-01-15T09:21:23;97719.88;;;-4.56;73.33
55347;BME280;41218;55.700;38.270;2024-01-15T09:26:25;97701.94;;;-4.60;73.48
55347;BME280;41218;55.700;38.270;2024-01-15T09:31:25;97699.88;;;-4.55;73.76
55347;BME280;41218;55.700;38.270;2024-01-15T09:36:27;97694.50;;;-4.64;73.20
55347;BME280;41218;55.700;38.270;2024-01-15T09:41:29;97700.81;;;-4.51;73.20
55347;BME280;41218;55.700;38.270;2024-01-15T09:46:31;97697.66;;;-4.53;72.86
55347;BME280;41218;55.700;38.270;2024-01-15T09:51:32;97668.81;;;-4.61;72.97
55347;BME280;41218;55.700;38.270;2024-01-15T09:56:33;97697.44;;;-4.30;73.15
55347;BME280;41218;55.700;38.270;2024-01-15T10:01:36;97668.47;;;-4.51;73.14
55347;BME280;41218;55.700;38.270;2024-01-15T10:06:39;97674.47;;;-4.45;72.96
55347;BME280;41218;55.700;38.270;2024-01-15T10:11:41;97720.88;;;-4.22;72.77
55347;BME280;41218;55.700;38.270;2024-01-15T10:16:42;97685.69;;;-4.34;73.22
55347;BME280;41218;55.700;38.270;2024-01-15T10:21:43;97695.81;;;-4.23;72.97
55347;BME280;41218;55.700;38.270;2024-01-15T10:26:44;97688.03;;;-4.15;72.95
55347;BME280;41218;55.700;38.270;2024-01-15T10:31:45;97694.22;;;-4.15;72.95
55347;BME280;41218;55.700;38.270;2024-01-15T10:36:46;97693.91;;;-4.13;72.92
55347;BME280;41218;55.700;38.270;2024-01-15T10:41:48;97705.75;;;-4.06;73.21
55347;BME280;41218;55.700;38.270;2024-01-15T10:46:49;97685.47;;;-4.12;72.26
55347;BME280;41218;55.700;38.270;2024-01-15T10:51:50;97683.88;;;-4.13;73.44
55347;BME280;41218;55.700;38.270;2024-01-15T10:56:56;97677.03;;;-4.10;73.22
55347;BME280;41218;55.700;38.270;2024-01-15T11:01:57;97688.94;;;-4.03;73.56
55347;BME280;41218;55.700;38.270;2024-01-15T11:07:01;97689.53;;;-3.97;72.95
55347;BME280;41218;55.700;38.270;2024-01-15T11:17:10;97661.16;;;-4.03;72.95
55347;BME280;41218;55.700;38.270;2024-01-15T11:32:42;97652.03;;;-3.90;72.74
55347;BME280;41218;55.700;38.270;2024-01-15T11:42:54;97654.81;;;-3.77;73.14
55347;BME280;41218;55.700;38.270;2024-01-15T11:48:15;97661.50;;;-3.75;72.78
55347;BME280;41218;55.700;38.270;2024-01-15T11:53:17;97646.13;;;-3.83;72.81
55347;BME280;41218;55.700;38.270;2024-01-15T11:58:21;97631.41;;;-3.94;72.95
55347;BME280;41218;55.700;38.270;2024-01-15T12:03:23;97666.53;;;-3.73;72.94
55347;BME280;41218;55.700;38.270;2024-01-15T12:08:24;97669.53;;;-3.66;72.93
55347;BME280;41218;55.700;38.270;2024-01-15T12:13:27;97649.09;;;-3.76;72.51
55347;BME280;41218;55.700;38.270;2024-01-15T12:18:27;97676.97;;;-3.63;72.80
55347;BME280;41218;55.700;38.270;2024-01-15T12:23:29;97665.13;;;-3.71;73.24
55347;BME280;41218;55.700;38.270;2024-01-15T12:28:30;97652.63;;;-3.84;72.71
55347;BME280;41218;55.700;38.270;2024-01-15T12:33:31;97681.56;;;-3.64;73.31
55347;BME280;41218;55.700;38.270;2024-01-15T12:38:31;97626.47;;;-3.92;73.10
55347;BME280;41218;55.700;38.270;2024-01-15T12:43:32;97651.66;;;-3.79;73.13
55347;BME280;41218;55.700;38.270;2024-01-15T12:48:34;97658.78;;;-3.75;72.59
55347;BME280;41218;55.700;38.270;2024-01-15T12:53:36;97670.84;;;-3.72;73.15
55347;BME280;41218;55.700;38.270;2024-01-15T12:58:36;97660.66;;;-3.75;72.91
55347;BME280;41218;55.700;38.270;2024-01-15T13:03:38;97674.31;;;-3.72;73.19
55347;BME280;41218;55.700;38.270;2024-01-15T13:08:39;97672.41;;;-3.71;73.17
55347;BME280;41218;55.700;38.270;2024-01-15T13:13:40;97689.81;;;-3.60;73.54
55347;BME280;41218;55.700;38.270;2024-01-15T13:18:40;97679.06;;;-3.69;73.12
55347;BME280;41218;55.700;38.270;2024-01-15T13:23:41;97646.50;;;-3.93;73.17
55347;BME280;41218;55.700;38.270;2024-01-15T13:28:42;97639.38;;;-3.98;73.62
55347;BME280;41218;55.700;38.270;2024-01-15T13:33:42;97629.34;;;-3.97;73.39
55347;BME280;41218;55.700;38.270;2024-01-15T13:38:43;97684.78;;;-3.70;73.52
55347;BME280;41218;55.700;38.270;2024-01-15T13:43:47;97643.06;;;-4.03;73.06
55347;BME280;41218;55.700;38.270;2024-01-15T13:48:48;97653.06;;;-4.03;73.68
55347;BME280;41218;55.700;38.270;2024-01-15T13:53:51;97667.59;;;-3.95;73.59
55347;BME280;41218;55.700;38.270;2024-01-15T13:58:51;97658.25;;;-3.98;73.29
55347;BME280;41218;55.700;38.270;2024-01-15T14:03:53;97678.22;;;-3.90;73.38
55347;BME280;41218;55.700;38.270;2024-01-15T14:08:57;97663.69;;;-4.07;73.66
55347;BME280;41218;55.700;38.270;2024-01-15T14:13:58;97659.88;;;-4.06;72.98
55347;BME280;41218;55.700;38.270;2024-01-15T14:18:58;97654.47;;;-4.06;73.92
55347;BME280;41218;55.700;38.270;2024-01-15T14:23:59;97677.75;;;-3.92;73.53
55347;BME280;41218;55.700;38.270;2024-01-15T14:29:00;97649.44;;;-4.07;73.37
55347;BME280;41218;55.700;38.270;2024-01-15T14:34:00;97634.41;;;-4.17;73.36
55347;BME280;41218;55.700;38.270;2024-01-15T14:39:03;97655.88;;;-3.99;73.06
55347;BME280;41218;55.700;38.270;2024-01-15T14:44:05;97637.03;;;-4.08;73.50
55347;BME280;41218;55.700;38.270;2024-01-15T14:49:06;97614.25;;;-4.19;73.22
55347;BME280;41218;55.700;38.270;2024-01-15T14:54:07;97652.06;;;-3.98;73.57
55347;BME280;41218;55.700;38.270;2024-01-15T14:59:09;97665.19;;;-3.88;73.76
55347;BME280;41218;55.700;38.270;2024-01-15T15:04:10;97674.38;;;-3.80;73.75
55347;BME280;41218;55.700;38.270;2024-01-15T15:09:10;97666.78;;;-3.87;73.48
55347;BME280;41218;55.700;38.270;2024-01-15T15:14:12;97658.69;;;-3.87;73.94
55347;BME280;41218;55.700;38.270;2024-01-15T15:19:13;97635.59;;;-4.06;73.79
55347;BME280;41218;55.700;38.270;2024-01-15T15:24:14;97647.31;;;-4.02;74.07
55347;BME280;41218;55.700;38.270;2024-01-15T15:29:14;97649.69;;;-3.91;73.80
55347;BME280;41218;55.700;38.270;2024-01-15T15:34:17;97629.94;;;-4.13;74.05
55347;BME280;41218;55.700;38.270;2024-01-15T15:39:17;97646.06;;;-4.04;73.90
55347;BME280;41218;55.700;38.270;2024-01-15T15:44:18;97663.03;;;-3.95;73.47
55347;BME280;41218;55.700;38.270;2024-01-15T15:49:19;97643.38;;;-4.04;74.28
55347;BME280;41218;55.700;38.270;2024-01-15T15:54:20;97620.44;;;-4.19;74.60
55347;BME280;41218;55.700;38.270;2024-01-15T15:59:21;97682.66;;;-3.86;74.59
55347;BME280;41218;55.700;38.270;2024-01-15T16:04:24;97678.69;;;-3.88;74.55
55347;BME280;41218;55.700;38.270;2024-01-15T16:09:25;97653.19;;;-3.99;74.18
55347;BME280;41218;55.700;38.270;2024-01-15T16:14:25;97671.00;;;-3.77;74.78
55347;BME280;41218;55.700;38.270;2024-01-15T16:19:26;97655.53;;;-3.89;74.17
55347;BME280;41218;55.700;38.270;2024-01-15T16:24:27;97637.81;;;-3.99;74.75
55347;BME280;41218;55.700;38.270;2024-01-15T16:29:28;97620.84;;;-4.08;74.13
55347;BME280;41218;55.700;38.270;2024-01-15T16:34:29;97653.63;;;-3.89;74.40
55347;BME280;41218;55.700;38.270;2024-01-15T16:39:32;97658.31;;;-3.77;74.40
55347;BME280;41218;55.700;38.270;2024-01-15T16:44:33;97656.56;;;-3.73;74.32
55347;BME280;41218;55.700;38.270;2024-01-15T16:49:34;97651.78;;;-3.76;74.50
55347;BME280;41218;55.700;38.270;2024-01-15T16:54:34;97653.50;;;-3.71;74.51
55347;BME280;41218;55.700;38.270;2024-01-15T16:59:35;97641.13;;;-3.72;74.31
55347;BME280;41218;55.700;38.270;2024-01-15T17:04:36;97648.38;;;-3.64;74.26
55347;BME280;41218;55.700;38.270;2024-01-15T17:09:36;97621.69;;;-3.87;74.48
55347;BME280;41218;55.700;38.270;2024-01-15T17:14:37;97612.00;;;-3.88;74.08
55347;BME280;41218;55.700;38.270;2024-01-15T17:19:38;97609.75;;;-3.86;74.43
55347;BME280;41218;55.700;38.270;2024-01-15T17:24:38;97617.22;;;-3.83;74.11
55347;BME280;41218;55.700;38.270;2024-01-15T17:29:40;97595.34;;;-3.90;73.89
55347;BME280;41218;55.700;38.270;2024-01-15T17:34:44;97622.56;;;-3.74;74.25
55347;BME280;41218;55.700;38.270;2024-01-15T17:39:45;97603.13;;;-3.88;74.55
55347;BME280;41218;55.700;38.270;2024-01-15T17:44:47;97609.91;;;-3.82;74.19
55347;BME280;41218;55.700;38.270;2024-01-15T17:49:47;97614.78;;;-3.75;74.51
55347;BME280;41218;55.700;38.270;2024-01-15T17:54:48;97611.91;;;-3.70;74.39
55347;BME280;41218;55.700;38.270;2024-01-15T17:59:49;97603.19;;;-3.76;74.92
55347;BME280;41218;55.700;38.270;2024-01-15T18:04:49;97597.66;;;-3.79;74.91
55347;BME280;41218;55.700;38.270;2024-01-15T18:09:50;97588.47;;;-3.78;74.89
55347;BME280;41218;55.700;38.270;2024-01-15T18:14:51;97586.34;;;-3.73;74.70
55347;BME280;41218;55.700;38.270;2024-01-15T18:19:52;97570.09;;;-3.85;74.67
55347;BME280;41218;55.700;38.270;2024-01-15T18:24:53;97614.81;;;-3.54;74.79
55347;BME280;41218;55.700;38.270;2024-01-15T18:29:54;97581.41;;;-3.71;74.56
55347;BME280;41218;55.700;38.270;2024-01-15T18:34:56;97571.88;;;-3.68;75.13
55347;BME280;41218;55.700;38.270;2024-01-15T18:39:57;97560.00;;;-3.76;75.04
55347;BME280;41218;55.700;38.270;2024-01-15T18:44:58;97572.31;;;-3.66;74.67
55347;BME280;41218;55.700;38.270;2024-01-15T18:49:58;97572.94;;;-3.60;74.69
55347;BME280;41218;55.700;38.270;2024-01-15T18:54:59;97564.69;;;-3.64;75.13
55347;BME280;41218;55.700;38.270;2024-01-15T19:00:02;97551.19;;;-3.64;75.06
55347;BME280;41218;55.700;38.270;2024-01-15T19:05:07;97559.88;;;-3.58;75.32
55347;BME280;41218;55.700;38.270;2024-01-15T19:10:09;97562.81;;;-3.51;74.99
55347;BME280;41218;55.700;38.270;2024-01-15T19:15:09;97566.13;;;-3.46;74.57
55347;BME280;41218;55.700;38.270;2024-01-15T19:20:11;97558.34;;;-3.47;74.70
55347;BME280;41218;55.700;38.270;2024-01-15T19:25:12;97549.31;;;-3.51;74.38
55347;BME280;41218;55.700;38.270;2024-01-15T19:30:13;97570.97;;;-3.39;75.79
55347;BME280;41218;55.700;38.270;2024-01-15T19:35:17;97541.22;;;-3.51;75.07
55347;BME280;41218;55.700;38.270;2024-01-15T19:40:17;97531.88;;;-3.54;75.44
55347;BME280;41218;55.700;38.270;2024-01-15T19:45:18;97545.75;;;-3.43;75.27
55347;BME280;41218;55.700;38.270;2024-01-15T19:50:19;97532.25;;;-3.43;75.12
55347;BME280;41218;55.700;38.270;2024-01-15T19:55:19;97517.50;;;-3.46;75.48
55347;BME280;41218;55.700;38.270;2024-01-15T20:00:20;97529.69;;;-3.39;75.25
55347;BME280;41218;55.700;38.270;2024-01-15T20:05:20;97513.81;;;-3.41;75.41
55347;BME280;41218;55.700;38.270;2024-01-15T20:10:21;97493.19;;;-3.46;75.42
55347;BME280;41218;55.700;38.270;2024-01-15T20:15:22;97489.84;;;-3.43;75.54
55347;BME280;41218;55.700;38.270;2024-01-15T20:20:23;97502.47;;;-3.34;75.41
55347;BME280;41218;55.700;38.270;2024-01-15T20:25:24;97513.63;;;-3.24;75.53
55347;BME280;41218;55.700;38.270;2024-01-15T20:30:27;97502.94;;;-3.32;75.86
55347;BME280;41218;55.700;38.270;2024-01-15T20:35:29;97513.97;;;-3.25;75.56
55347;BME280;41218;55.700;38.270;2024-01-15T20:40:29;97523.44;;;-3.19;75.85
55347;BME280;41218;55.700;38.270;2024-01-15T20:45:30;97505.22;;;-3.22;75.79
55347;BME280;41218;55.700;38.270;2024-01-15T20:50:34;97500.78;;;-3.27;75.75
55347;BME280;41218;55.700;38.270;2024-01-15T20:55:35;97506.91;;;-3.17;75.51
55347;BME280;41218;55.700;38.270;2024-01-15T21:00:36;97512.75;;;-3.15;75.54
55347;BME280;41218;55.700;38.270;2024-01-15T21:05:37;97498.53;;;-3.25;75.84
55347;BME280;41218;55.700;38.270;2024-01-15T21:10:37;97499.13;;;-3.19;76.10
55347;BME280;41218;55.700;38.270;2024-01-15T21:15:38;97498.69;;;-3.09;75.80
55347;BME280;41218;55.700;38.270;2024-01-15T21:20:39;97495.41;;;-3.14;75.72
55347;BME280;41218;55.700;38.270;2024-01-15T21:25:40;97502.31;;;-3.05;75.56
55347;BME280;41218;55.700;38.270;2024-01-15T21:30:40;97502.75;;;-3.03;75.44
55347;BME280;41218;55.700;38.270;2024-01-15T21:35:41;97503.22;;;-3.00;76.10
55347;BME280;41218;55.700;38.270;2024-01-15T21:40:41;97480.22;;;-3.07;75.27
55347;BME280;41218;55.700;38.270;2024-01-15T21:45:43;97490.28;;;-2.95;75.58
55347;BME280;41218;55.700;38.270;2024-01-15T21:50:43;97495.34;;;-2.93;75.90
55347;BME280;41218;55.700;38.270;2024-01-15T21:55:44;97498.28;;;-2.86;76.16
55347;BME280;41218;55.700;38.270;2024-01-15T22:00:46;97501.66;;;-2.77;76.15
55347;BME280;41218;55.700;38.270;2024-01-15T22:05:46;97487.91;;;-2.84;76.32
55347;BME280;41218;55.700;38.270;2024-01-15T22:10:47;97472.38;;;-2.87;76.45
55347;BME280;41218;55.700;38.270;2024-01-15T22:15:48;97498.97;;;-2.65;76.19
55347;BME280;41218;55.700;38.270;2024-01-15T22:20:48;97449.72;;;-2.95;76.03
55347;BME280;41218;55.700;38.270;2024-01-15T22:25:49;97477.53;;;-2.70;75.76
55347;BME280;41218;55.700;38.270;2024-01-15T22:30:50;97456.16;;;-2.75;75.69
55347;BME280;41218;55.700;38.270;2024-01-15T22:35:51;97472.81;;;-2.60;75.53
55347;BME280;41218;55.700;38.270;2024-01-15T22:40:51;97482.75;;;-2.52;75.91
55347;BME280;41218;55.700;38.270;2024-01-15T22:45:52;97504.25;;;-2.44;76.13
55347;BME280;41218;55.700;38.270;2024-01-15T22:50:52;97483.97;;;-2.50;75.80
55347;BME280;41218;55.700;38.270;2024-01-15T22:55:54;97485.00;;;-2.42;75.92
55347;BME280;41218;55.700;38.270;2024-01-15T23:00:54;97475.63;;;-2.45;76.25
55347;BME280;41218;55.700;38.270;2024-01-15T23:05:55;97471.13;;;-2.40;76.44
55347;BME280;41218;55.700;38.270;2024-01-15T23:10:56;97477.09;;;-2.35;76.37
55347;BME280;41218;55.700;38.270;2024-01-15T23:15:56;97437.44;;;-2.55;76.22
55347;BME280;41218;55.700;38.270;2024-01-15T23:20:57;97439.47;;;-2.52;75.83
55347;BME280;41218;55.700;38.270;2024-01-15T23:25:58;97491.72;;;-2.24;76.12
55347;BME280;41218;55.700;38.270;2024-01-15T23:31:00;97495.66;;;-2.21;76.07
55347;BME280;41218;55.700;38.270;2024-01-15T23:36:01;97509.19;;;-2.21;76.60
55347;BME280;41218;55.700;38.270;2024-01-15T23:41:03;97473.47;;;-2.27;76.11
55347;BME280;41218;55.700;38.270;2024-01-15T23:46:04;97469.88;;;-2.31;76.35
55347;BME280;41218;55.700;38.270;2024-01-15T23:51:05;97488.81;;;-2.18;76.24
55347;BME280;41218;55.700;38.270;2024-01-15T23:56:06;97488.09;;;-2.15;76.12
